Time;durP1;ratioP1;P1;durP2;ratioP2;P2;SDS_P1;SDS_P2;PMS_P1;PMS_P2;Temp;Humidity;BMP_temperature;BMP_pressure;BME280_temperature;BME280_humidity;BME280_pressure;Samples;Min_cycle;Max_cycle;Signal;HPM_P1;HPM_P2
2021/11/30 00:01:46;;;;;;;22.92;21.33;;;3.70;89.30;;;;;;5067498;28;20192;-69
2021/11/30 00:04:13;;;;;;;21.95;20.65;;;3.70;88.90;;;;;;5067064;28;20255;-69
2021/11/30 00:06:43;;;;;;;23.13;21.48;;;3.80;88.90;;;;;;5067298;28;20322;-70
2021/11/30 00:11:59;;;;;;;22.98;21.42;;;3.70;88.40;;;;;;5059299;28;20607;-69
2021/11/30 00:14:27;;;;;;;969.65;143.70;;;3.70;88.80;;;;;;5065772;28;20299;-69
2021/11/30 00:16:55;;;;;;;22.08;20.58;;;3.70;91.10;;;;;;5069298;28;20196;-69
2021/11/30 00:19:22;;;;;;;21.73;20.33;;;3.80;89.40;;;;;;5066932;28;20200;-70
2021/11/30 00:21:50;;;;;;;52.17;23.55;;;3.80;89.30;;;;;;5069008;28;20227;-69
2021/11/30 00:24:17;;;;;;;22.67;21.05;;;3.70;90.70;;;;;;5066883;28;20310;-69
2021/11/30 00:26:44;;;;;;;22.80;21.23;;;3.70;89.80;;;;;;5069216;28;20276;-70
2021/11/30 00:29:11;;;;;;;21.88;20.45;;;3.70;89.70;;;;;;5067286;28;20292;-69
2021/11/30 00:31:38;;;;;;;22.45;20.77;;;3.70;90.40;;;;;;5068080;28;20231;-70
2021/11/30 00:34:05;;;;;;;22.08;20.77;;;3.70;90.20;;;;;;5066742;28;20291;-70
2021/11/30 00:36:32;;;;;;;21.73;20.35;;;3.70;90.20;;;;;;5069244;28;20750;-69
2021/11/30 00:39:00;;;;;;;22.35;20.55;;;3.60;90.10;;;;;;5066664;28;20298;-69
2021/11/30 00:41:27;;;;;;;22.02;20.63;;;3.50;90.30;;;;;;5069006;28;20279;-70
2021/11/30 00:43:55;;;;;;;21.25;20.05;;;3.50;90.50;;;;;;5065864;28;20323;-69
2021/11/30 00:46:32;;;;;;;20.63;19.30;;;3.50;90.40;;;;;;5069334;28;20299;-69
2021/11/30 00:48:59;;;;;;;21.00;19.70;;;3.50;90.50;;;;;;5066284;28;20279;-69
2021/11/30 00:51:27;;;;;;;22.02;20.70;;;3.50;90.80;;;;;;5069162;28;20610;-69
2021/11/30 00:53:54;;;;;;;22.15;20.40;;;3.50;90.70;;;;;;5066389;28;20334;-69
2021/11/30 00:56:23;;;;;;;22.23;19.98;;;3.50;91.30;;;;;;5066548;28;20270;-69
2021/11/30 00:58:53;;;;;;;20.88;19.63;;;3.50;91.10;;;;;;5066391;28;20239;-69
2021/11/30 01:01:20;;;;;;;21.25;19.95;;;3.50;91.10;;;;;;5072315;28;20254;-69
2021/11/30 01:03:47;;;;;;;20.83;19.00;;;3.60;90.30;;;;;;5069541;28;20273;-69
2021/11/30 01:06:15;;;;;;;19.35;18.33;;;3.50;90.70;;;;;;5072309;28;20306;-70
2021/11/30 01:08:42;;;;;;;19.35;18.25;;;3.50;90.70;;;;;;5070027;28;20196;-69
2021/11/30 01:11:09;;;;;;;20.05;18.73;;;3.50;90.30;;;;;;5072356;28;20633;-69
2021/11/30 01:13:37;;;;;;;20.00;18.90;;;3.40;90.10;;;;;;5069766;28;20302;-69
2021/11/30 01:16:05;;;;;;;20.40;19.10;;;3.50;90.50;;;;;;5071462;28;20224;-69
2021/11/30 01:18:32;;;;;;;20.50;19.40;;;3.50;90.80;;;;;;5070225;28;20192;-69
2021/11/30 01:21:00;;;;;;;20.60;19.25;;;3.50;89.80;;;;;;5071859;28;20286;-69
2021/11/30 01:23:29;;;;;;;19.52;18.52;;;3.50;89.50;;;;;;5069375;28;20306;-69
2021/11/30 01:25:57;;;;;;;20.23;18.90;;;3.50;89.80;;;;;;5068416;28;20226;-69
2021/11/30 01:28:24;;;;;;;19.90;18.80;;;3.50;89.20;;;;;;5070065;28;20202;-69
2021/11/30 01:30:53;;;;;;;20.58;19.40;;;3.50;89.70;;;;;;5071149;28;20198;-70
2021/11/30 01:33:20;;;;;;;35.95;21.42;;;3.60;89.40;;;;;;5068426;28;20251;-69
2021/11/30 01:35:48;;;;;;;20.70;19.40;;;3.60;88.80;;;;;;5070289;28;20327;-69
2021/11/30 01:38:15;;;;;;;20.08;19.08;;;3.60;89.30;;;;;;5068264;28;20262;-70
2021/11/30 01:40:43;;;;;;;20.40;19.10;;;3.50;89.30;;;;;;5072116;28;20632;-70
2021/11/30 01:43:17;;;;;;;20.52;19.33;;;3.60;88.90;;;;;;5069793;28;20216;-70
2021/11/30 01:45:46;;;;;;;21.08;19.88;;;3.60;88.40;;;;;;5069653;28;20273;-70
2021/11/30 01:51:02;;;;;;;21.80;20.30;;;3.70;88.40;;;;;;5070387;28;20207;-70
2021/11/30 01:53:29;;;;;;;19.92;18.83;;;3.70;87.90;;;;;;5069175;28;20265;-70
2021/11/30 01:55:56;;;;;;;20.67;19.58;;;3.70;89.30;;;;;;5068292;28;20275;-70
2021/11/30 01:58:24;;;;;;;21.02;19.77;;;3.70;87.70;;;;;;5068906;28;20291;-70
2021/11/30 02:00:52;;;;;;;21.15;19.95;;;3.70;87.80;;;;;;5071118;28;20283;-69
2021/11/30 02:03:20;;;;;;;20.52;19.33;;;3.60;87.90;;;;;;5068678;28;20302;-70
2021/11/30 02:05:47;;;;;;;21.42;20.13;;;3.70;87.60;;;;;;5070977;28;20294;-69
2021/11/30 02:08:14;;;;;;;21.10;19.90;;;3.70;86.50;;;;;;5068911;28;20231;-70
2021/11/30 02:10:41;;;;;;;20.33;19.33;;;3.60;87.30;;;;;;5070777;28;20278;-70
2021/11/30 02:13:09;;;;;;;20.38;19.20;;;3.70;87.40;;;;;;5068538;28;20692;-70
2021/11/30 02:15:41;;;;;;;20.35;19.25;;;3.60;87.00;;;;;;5070849;28;20191;-70
2021/11/30 02:18:12;;;;;;;20.25;19.15;;;3.60;87.00;;;;;;5067156;28;20683;-69
2021/11/30 02:20:45;;;;;;;20.00;18.90;;;3.50;89.20;;;;;;5071092;28;20200;-69
2021/11/30 02:23:19;;;;;;;21.38;19.65;;;3.40;87.10;;;;;;5068792;28;20226;-70
2021/11/30 02:25:46;;;;;;;20.80;19.65;;;3.40;87.10;;;;;;5069345;28;20300;-69
2021/11/30 02:28:13;;;;;;;20.80;19.65;;;3.50;86.80;;;;;;5067393;28;20243;-70
2021/11/30 02:30:40;;;;;;;21.90;20.65;;;3.60;86.30;;;;;;5070251;28;20287;-70
2021/11/30 02:33:07;;;;;;;19.73;18.73;;;3.60;85.80;;;;;;5068496;28;20705;-70
2021/11/30 02:35:34;;;;;;;20.40;19.08;;;3.60;88.10;;;;;;5070256;28;20321;-69
2021/11/30 02:38:07;;;;;;;21.00;19.80;;;3.60;87.00;;;;;;5067928;28;20274;-69
2021/11/30 02:40:35;;;;;;;20.52;19.33;;;3.70;85.70;;;;;;5070354;28;20209;-69
2021/11/30 02:43:04;;;;;;;20.77;19.48;;;3.70;85.50;;;;;;5068173;28;20335;-69
2021/11/30 02:45:31;;;;;;;20.25;19.15;;;3.70;85.20;;;;;;5066508;28;20577;-69
2021/11/30 02:47:58;;;;;;;20.00;19.00;;;3.70;85.10;;;;;;5066358;28;20280;-69
2021/11/30 02:50:27;;;;;;;20.77;19.40;;;3.70;85.20;;;;;;5070046;28;20731;-69
2021/11/30 02:52:54;;;;;;;20.60;19.38;;;3.70;84.30;;;;;;5066700;28;20213;-69
2021/11/30 02:55:23;;;;;;;20.42;19.33;;;3.70;84.70;;;;;;5068348;28;20518;-69
2021/11/30 02:57:50;;;;;;;20.13;19.00;;;3.60;84.60;;;;;;5067693;28;20242;-68
2021/11/30 03:00:17;;;;;;;20.38;19.17;;;3.60;85.00;;;;;;5069828;28;20241;-70
2021/11/30 03:02:44;;;;;;;19.70;18.70;;;3.60;84.30;;;;;;5066420;28;20307;-70
2021/11/30 03:05:11;;;;;;;19.90;18.52;;;3.50;84.80;;;;;;5069736;28;20768;-70
2021/11/30 03:07:40;;;;;;;20.15;19.05;;;3.60;85.20;;;;;;5068452;28;20240;-70
2021/11/30 03:10:10;;;;;;;65.40;22.83;;;3.60;84.40;;;;;;5068313;28;20299;-70
2021/11/30 03:12:41;;;;;;;20.88;19.50;;;3.50;84.80;;;;;;5068276;28;20728;-69
2021/11/30 03:15:10;;;;;;;20.88;19.50;;;3.50;84.70;;;;;;5061055;28;20265;-69
2021/11/30 03:17:37;;;;;;;20.65;19.35;;;3.40;84.70;;;;;;5068416;28;20231;-70
2021/11/30 03:20:06;;;;;;;20.77;19.52;;;3.40;85.00;;;;;;5069355;28;20282;-70
2021/11/30 03:22:33;;;;;;;19.85;18.85;;;3.40;84.30;;;;;;5068238;28;20238;-69
2021/11/30 03:25:00;;;;;;;20.83;19.52;;;3.40;84.00;;;;;;5065602;28;20235;-69
2021/11/30 03:27:27;;;;;;;20.55;19.10;;;3.30;84.00;;;;;;5068861;28;20235;-69
2021/11/30 03:29:56;;;;;;;21.23;19.95;;;3.20;84.90;;;;;;5066807;28;20275;-69
2021/11/30 03:35:09;;;;;;;20.60;19.20;;;3.30;85.00;;;;;;5069690;28;20195;-69
2021/11/30 03:37:36;;;;;;;20.85;19.50;;;3.30;84.80;;;;;;5065104;28;20709;-69
2021/11/30 03:40:05;;;;;;;20.55;19.45;;;3.30;84.40;;;;;;5068018;28;20242;-69
2021/11/30 03:42:32;;;;;;;21.30;19.90;;;3.30;84.20;;;;;;5068172;28;20195;-70
2021/11/30 03:45:00;;;;;;;20.70;19.52;;;3.30;84.00;;;;;;5064795;28;20287;-69
2021/11/30 03:47:27;;;;;;;21.00;19.80;;;3.40;83.70;;;;;;5067040;28;20295;-69
2021/11/30 03:49:54;;;;;;;19.58;18.38;;;3.40;84.40;;;;;;5066897;28;20299;-69
2021/11/30 03:52:21;;;;;;;20.02;18.92;;;3.50;84.00;;;;;;5068915;28;20685;-69
2021/11/30 03:54:48;;;;;;;20.35;19.15;;;3.40;84.30;;;;;;5066738;28;20665;-69
2021/11/30 03:57:15;;;;;;;20.77;19.75;;;3.50;83.70;;;;;;5068786;28;20279;-69
2021/11/30 03:59:42;;;;;;;20.90;19.75;;;3.60;83.10;;;;;;5064970;28;20286;-69
2021/11/30 04:02:13;;;;;;;20.15;19.05;;;3.60;82.60;;;;;;5069339;28;20749;-69
2021/11/30 04:04:43;;;;;;;21.02;19.77;;;3.60;82.40;;;;;;5067305;28;20211;-69
2021/11/30 04:07:10;;;;;;;21.13;20.02;;;3.60;82.70;;;;;;5069309;28;20312;-69
2021/11/30 04:09:37;;;;;;;20.88;19.55;;;3.50;82.50;;;;;;5065971;28;20283;-69
2021/11/30 04:12:07;;;;;;;22.88;21.58;;;3.40;83.00;;;;;;5068158;28;20200;-69
2021/11/30 04:14:34;;;;;;;22.45;20.98;;;3.50;84.60;;;;;;5066444;28;20215;-69
2021/11/30 04:17:01;;;;;;;21.27;20.17;;;3.50;84.00;;;;;;5069084;28;20227;-69
2021/11/30 04:19:29;;;;;;;20.98;19.73;;;3.50;83.90;;;;;;5067090;28;20195;-69
2021/11/30 04:21:56;;;;;;;22.10;20.88;;;3.50;83.70;;;;;;5067759;28;20315;-69
2021/11/30 04:24:23;;;;;;;21.38;20.13;;;3.50;83.30;;;;;;5066951;28;20303;-69
2021/11/30 04:26:50;;;;;;;22.23;20.90;;;3.50;83.30;;;;;;5069102;28;20299;-69
2021/11/30 04:29:17;;;;;;;21.25;20.02;;;3.60;83.20;;;;;;5066339;28;20253;-69
2021/11/30 04:31:44;;;;;;;22.08;20.58;;;3.50;83.60;;;;;;5068742;28;20281;-69
2021/11/30 04:34:11;;;;;;;22.10;20.70;;;3.50;83.60;;;;;;5069024;28;20255;-69
2021/11/30 04:36:40;;;;;;;20.65;19.50;;;3.40;83.90;;;;;;5072936;28;20204;-69
2021/11/30 04:39:07;;;;;;;21.48;20.23;;;3.40;83.70;;;;;;5069921;28;20223;-70
2021/11/30 04:41:34;;;;;;;21.77;20.38;;;3.30;83.70;;;;;;5072722;28;20271;-69
2021/11/30 04:44:03;;;;;;;22.65;21.25;;;3.40;84.00;;;;;;5069529;28;20303;-69
2021/11/30 04:46:39;;;;;;;22.80;21.30;;;3.30;84.00;;;;;;5071401;28;20212;-69
2021/11/30 04:49:13;;;;;;;22.70;21.10;;;3.30;83.80;;;;;;5070733;28;20196;-70
2021/11/30 04:51:41;;;;;;;23.60;22.33;;;3.30;83.60;;;;;;5072645;28;20200;-70
2021/11/30 04:54:08;;;;;;;21.25;20.13;;;3.20;84.00;;;;;;5069746;28;20216;-71
2021/11/30 04:56:35;;;;;;;21.65;20.25;;;3.20;84.00;;;;;;5072030;28;20568;-69
2021/11/30 04:59:02;;;;;;;23.52;22.15;;;3.20;84.30;;;;;;5070391;28;20704;-69
2021/11/30 05:01:29;;;;;;;21.60;20.33;;;3.20;83.80;;;;;;5070830;28;20882;-69
2021/11/30 05:03:59;;;;;;;21.70;20.35;;;3.20;84.50;;;;;;5066742;28;20311;-70
2021/11/30 05:06:26;;;;;;;23.33;21.83;;;3.30;84.00;;;;;;5072447;28;20220;-69
2021/11/30 05:08:55;;;;;;;23.15;21.85;;;3.30;83.70;;;;;;5070052;28;20295;-69
2021/11/30 05:11:22;;;;;;;23.10;21.40;;;3.30;83.50;;;;;;5071764;28;20700;-69
2021/11/30 05:13:49;;;;;;;22.52;21.10;;;3.30;84.10;;;;;;5069620;28;20786;-69
2021/11/30 05:16:16;;;;;;;22.30;21.17;;;3.30;84.30;;;;;;5069981;28;20287;-69
2021/11/30 05:18:42;;;;;;;21.65;20.45;;;3.30;84.10;;;;;;5070145;28;20663;-69
2021/11/30 05:21:09;;;;;;;22.80;21.40;;;3.30;83.90;;;;;;5071881;28;20749;-69
2021/11/30 05:23:37;;;;;;;25.33;23.77;;;3.20;84.20;;;;;;5070192;28;20346;-69
2021/11/30 05:26:05;;;;;;;22.85;21.55;;;3.30;84.40;;;;;;5072161;28;20218;-69
2021/11/30 05:28:34;;;;;;;24.25;22.83;;;3.20;84.60;;;;;;5068903;28;20207;-69
2021/11/30 05:31:02;;;;;;;22.98;21.67;;;3.30;84.90;;;;;;5070801;28;20204;-69
2021/11/30 05:33:29;;;;;;;23.05;21.52;;;3.30;85.30;;;;;;5070025;28;20306;-69
2021/11/30 05:35:56;;;;;;;23.73;22.20;;;3.30;85.30;;;;;;5071869;28;20776;-69
2021/11/30 05:38:24;;;;;;;23.25;21.73;;;3.30;85.00;;;;;;5067474;28;20230;-69
2021/11/30 05:40:51;;;;;;;22.60;21.30;;;3.20;85.80;;;;;;5071151;28;20296;-69
2021/11/30 05:43:20;;;;;;;23.83;22.25;;;3.10;87.40;;;;;;5067127;28;20226;-69
2021/11/30 05:45:47;;;;;;;22.45;21.25;;;3.10;87.10;;;;;;5070655;28;20664;-69
2021/11/30 05:48:14;;;;;;;24.48;22.80;;;3.10;87.40;;;;;;5068855;28;20243;-69
2021/11/30 05:50:43;;;;;;;25.48;24.08;;;3.10;86.90;;;;;;5071027;28;20235;-69
2021/11/30 05:53:10;;;;;;;25.05;23.75;;;3.10;86.50;;;;;;5069562;28;20259;-69
2021/11/30 05:55:37;;;;;;;22.00;20.35;;;3.00;86.80;;;;;;5071269;28;20228;-69
2021/11/30 05:58:05;;;;;;;22.50;21.30;;;3.00;86.50;;;;;;5067756;28;20309;-69
2021/11/30 06:00:33;;;;;;;23.02;21.67;;;3.10;86.10;;;;;;5071110;28;20199;-69
2021/11/30 06:03:04;;;;;;;24.75;23.35;;;3.10;85.80;;;;;;5064072;28;20302;-69
2021/11/30 06:05:33;;;;;;;87.97;28.75;;;3.10;85.50;;;;;;5071245;28;20258;-69
2021/11/30 06:08:00;;;;;;;24.42;23.02;;;3.00;86.40;;;;;;5068979;28;20307;-69
2021/11/30 06:10:28;;;;;;;23.42;22.23;;;3.00;86.40;;;;;;5070587;28;20271;-69
2021/11/30 06:12:55;;;;;;;26.25;24.63;;;3.00;86.60;;;;;;5067706;28;20248;-69
2021/11/30 06:15:22;;;;;;;23.25;21.55;;;3.00;86.00;;;;;;5070575;28;20204;-69
2021/11/30 06:17:50;;;;;;;23.27;22.17;;;3.00;86.10;;;;;;5068390;28;20840;-69
2021/11/30 06:20:18;;;;;;;27.35;25.83;;;3.10;86.10;;;;;;5070065;28;20285;-69
2021/11/30 06:22:45;;;;;;;25.70;24.00;;;3.00;86.60;;;;;;5069287;28;20660;-69
2021/11/30 06:25:12;;;;;;;24.95;23.45;;;3.00;86.70;;;;;;5070612;28;20245;-70
2021/11/30 06:27:40;;;;;;;25.35;23.80;;;3.00;87.20;;;;;;5069083;28;20216;-70
2021/11/30 06:30:09;;;;;;;26.70;25.15;;;2.80;87.40;;;;;;5068666;28;20470;-69
2021/11/30 06:32:36;;;;;;;26.50;24.60;;;2.90;87.90;;;;;;5069707;28;20306;-70
2021/11/30 06:35:05;;;;;;;23.50;22.20;;;2.90;88.00;;;;;;5069423;28;20704;-70
2021/11/30 06:37:32;;;;;;;23.65;22.25;;;3.00;88.00;;;;;;5070625;28;20300;-69
2021/11/30 06:40:00;;;;;;;25.65;24.20;;;3.00;87.80;;;;;;5070187;28;20782;-70
2021/11/30 06:42:27;;;;;;;24.45;22.88;;;3.00;87.60;;;;;;5069994;28;20638;-69
2021/11/30 06:44:54;;;;;;;24.77;23.27;;;2.80;88.00;;;;;;5064865;28;20205;-69
2021/11/30 06:47:21;;;;;;;25.33;23.83;;;2.80;88.70;;;;;;5069211;28;20309;-71
2021/11/30 06:49:48;;;;;;;26.23;24.73;;;2.80;89.00;;;;;;5068096;28;20232;-69
2021/11/30 06:52:17;;;;;;;1903.50;336.48;;;2.70;90.10;;;;;;5068333;28;20207;-70
2021/11/30 06:54:46;;;;;;;24.20;22.70;;;2.60;91.00;;;;;;5055854;28;20298;-70
2021/11/30 06:57:13;;;;;;;33.08;26.33;;;2.60;90.60;;;;;;5061505;28;20199;-70
2021/11/30 06:59:41;;;;;;;26.08;24.58;;;2.60;90.60;;;;;;5067154;28;20227;-73
2021/11/30 07:02:09;;;;;;;23.90;22.38;;;2.70;90.00;;;;;;5069296;28;20619;-72
2021/11/30 07:04:40;;;;;;;23.63;22.25;;;2.70;89.80;;;;;;5069954;28;20233;-73
2021/11/30 07:07:18;;;;;;;25.15;23.58;;;2.60;90.20;;;;;;5067008;28;20776;-73
2021/11/30 07:10:05;;;;;;;22.58;21.27;;;2.70;90.00;;;;;;5068071;28;20203;-74
2021/11/30 07:12:50;;;;;;;26.23;24.48;;;2.60;90.60;;;;;;5067012;28;20241;-72
2021/11/30 07:15:17;;;;;;;24.52;23.33;;;2.60;89.50;;;;;;5061522;28;20207;-73
2021/11/30 07:17:44;;;;;;;25.15;23.50;;;2.60;89.50;;;;;;5063085;28;20203;-73
2021/11/30 07:20:11;;;;;;;25.42;24.02;;;2.70;89.20;;;;;;5065986;28;20203;-73
2021/11/30 07:22:38;;;;;;;24.23;22.38;;;2.70;89.20;;;;;;5067455;28;20818;-73
2021/11/30 07:25:08;;;;;;;24.38;23.08;;;2.70;88.40;;;;;;5068119;28;20737;-75
2021/11/30 07:27:35;;;;;;;23.88;22.38;;;2.80;87.90;;;;;;5056047;28;20703;-73
2021/11/30 07:30:02;;;;;;;24.05;22.65;;;2.80;87.90;;;;;;5065796;28;20226;-75
2021/11/30 07:32:29;;;;;;;50.58;25.65;;;2.80;87.00;;;;;;5065969;28;20291;-74
2021/11/30 07:34:56;;;;;;;24.13;22.73;;;2.80;87.60;;;;;;5063559;28;20879;-75
2021/11/30 07:37:23;;;;;;;22.20;21.00;;;2.90;87.30;;;;;;5064020;28;20283;-73
2021/11/30 07:39:50;;;;;;;24.15;22.75;;;2.90;87.30;;;;;;5054968;28;20285;-75
2021/11/30 07:42:20;;;;;;;22.48;21.05;;;2.90;86.90;;;;;;5070786;28;20285;-70
2021/11/30 07:44:47;;;;;;;21.48;20.27;;;2.90;86.90;;;;;;5057775;28;20683;-71
2021/11/30 07:47:14;;;;;;;23.02;21.73;;;2.90;86.90;;;;;;5068935;28;20775;-70
2021/11/30 07:49:40;;;;;;;21.20;20.10;;;2.90;86.70;;;;;;5066650;28;20654;-70
2021/11/30 07:52:08;;;;;;;22.13;20.73;;;2.90;86.20;;;;;;5069783;28;20255;-70
2021/11/30 07:54:35;;;;;;;22.10;20.70;;;2.90;87.00;;;;;;5060929;28;20251;-70
2021/11/30 07:57:02;;;;;;;21.60;20.30;;;2.90;87.50;;;;;;5060470;28;20334;-70
2021/11/30 07:59:32;;;;;;;20.80;19.80;;;3.00;86.80;;;;;;5063417;28;20253;-70
2021/11/30 08:01:59;;;;;;;21.80;20.50;;;3.00;85.60;;;;;;5067018;28;20199;-70
2021/11/30 08:04:26;;;;;;;22.13;20.92;;;3.00;85.90;;;;;;5064082;28;20724;-70
2021/11/30 08:06:53;;;;;;;21.50;20.20;;;3.00;86.20;;;;;;5061718;28;20280;-69
2021/11/30 08:09:20;;;;;;;21.70;20.30;;;3.10;85.60;;;;;;5067095;28;20237;-70
2021/11/30 08:11:47;;;;;;;21.65;20.30;;;3.10;85.60;;;;;;5068653;28;20195;-71
2021/11/30 08:14:15;;;;;;;22.23;21.02;;;3.10;85.70;;;;;;5066470;28;20696;-69
2021/11/30 08:16:44;;;;;;;23.23;21.92;;;3.10;85.10;;;;;;5064625;28;20199;-70
2021/11/30 08:19:11;;;;;;;23.00;21.80;;;3.10;85.70;;;;;;5067781;28;20245;-71
2021/11/30 08:21:39;;;;;;;23.33;21.90;;;3.00;86.00;;;;;;5071418;28;20238;-70
2021/11/30 08:24:06;;;;;;;21.35;20.08;;;3.10;85.70;;;;;;5067610;28;20285;-70
2021/11/30 08:26:33;;;;;;;22.05;20.95;;;3.10;85.20;;;;;;5070168;28;20256;-70
2021/11/30 08:29:00;;;;;;;21.95;20.75;;;3.20;84.80;;;;;;5068470;28;20286;-69
2021/11/30 08:31:27;;;;;;;21.95;20.65;;;3.20;85.00;;;;;;5067722;28;20230;-69
2021/11/30 08:33:56;;;;;;;22.27;20.67;;;3.10;85.00;;;;;;5061139;28;20654;-70
2021/11/30 08:36:22;;;;;;;21.92;20.80;;;3.10;85.10;;;;;;5066361;28;20310;-69
2021/11/30 08:38:49;;;;;;;23.40;22.05;;;3.30;84.70;;;;;;5066961;28;20290;-69
2021/11/30 08:41:19;;;;;;;24.10;22.80;;;3.30;84.70;;;;;;5068034;28;20613;-70
2021/11/30 08:43:47;;;;;;;24.25;22.85;;;3.30;85.10;;;;;;5067281;28;20211;-71
2021/11/30 08:46:14;;;;;;;23.02;21.52;;;3.40;84.30;;;;;;5068868;28;20210;-71
2021/11/30 08:48:41;;;;;;;21.45;20.05;;;3.40;83.70;;;;;;5068671;28;20234;-70
2021/11/30 08:51:09;;;;;;;24.08;22.38;;;3.30;84.30;;;;;;5071357;28;20253;-71
2021/11/30 08:53:37;;;;;;;23.42;22.15;;;3.40;84.30;;;;;;5065888;28;20306;-68
2021/11/30 08:56:05;;;;;;;22.00;20.90;;;3.40;84.00;;;;;;5061200;28;20303;-69
2021/11/30 08:58:34;;;;;;;19.90;18.75;;;3.60;83.70;;;;;;5070773;28;20274;-69
2021/11/30 09:01:01;;;;;;;21.08;20.05;;;3.60;83.60;;;;;;5071933;28;20283;-69
2021/11/30 09:03:28;;;;;;;21.65;20.45;;;3.60;83.20;;;;;;5071429;28;20227;-69
2021/11/30 09:05:55;;;;;;;22.40;21.00;;;3.70;82.40;;;;;;5060741;28;20883;-70
2021/11/30 09:08:24;;;;;;;21.55;20.45;;;3.70;82.40;;;;;;5069385;28;20223;-68
2021/11/30 09:10:51;;;;;;;21.58;20.48;;;3.80;81.90;;;;;;5062746;28;20294;-70
2021/11/30 09:13:18;;;;;;;21.90;20.70;;;3.80;82.00;;;;;;5063538;28;20288;-70
2021/11/30 09:15:45;;;;;;;22.60;21.50;;;3.80;82.50;;;;;;5069928;28;20283;-69
2021/11/30 09:18:12;;;;;;;21.02;20.02;;;3.80;82.40;;;;;;5065664;28;22201;-70
2021/11/30 09:20:40;;;;;;;21.90;20.70;;;3.80;82.90;;;;;;5066389;28;20271;-69
2021/11/30 09:23:07;;;;;;;21.17;20.17;;;3.90;82.30;;;;;;5068855;28;20216;-70
2021/11/30 09:25:35;;;;;;;20.75;19.70;;;4.00;81.60;;;;;;5071076;28;20231;-70
2021/11/30 09:28:03;;;;;;;20.05;19.15;;;3.90;82.00;;;;;;5063821;28;20223;-70
2021/11/30 09:30:34;;;;;;;22.20;21.00;;;3.90;82.60;;;;;;5073074;28;20200;-69
2021/11/30 09:33:01;;;;;;;21.17;20.17;;;3.90;82.30;;;;;;5069878;28;20562;-69
2021/11/30 09:35:28;;;;;;;21.00;20.00;;;3.90;82.90;;;;;;5070866;28;20283;-70
2021/11/30 09:37:56;;;;;;;21.85;20.65;;;4.00;82.50;;;;;;5064683;28;20206;-70
2021/11/30 09:40:25;;;;;;;31.05;21.25;;;4.00;81.70;;;;;;5070625;28;20599;-70
2021/11/30 09:42:53;;;;;;;21.83;20.73;;;4.00;82.40;;;;;;5068693;28;20992;-70
2021/11/30 09:45:21;;;;;;;21.67;20.58;;;4.10;81.80;;;;;;5065515;28;20199;-70
2021/11/30 09:47:49;;;;;;;20.63;19.63;;;4.10;81.90;;;;;;5067582;28;20265;-70
2021/11/30 09:50:21;;;;;;;20.85;19.85;;;4.10;81.70;;;;;;5070874;28;20279;-70
2021/11/30 09:52:52;;;;;;;20.35;19.25;;;4.20;81.30;;;;;;5069305;28;20303;-70
2021/11/30 09:55:21;;;;;;;21.30;20.30;;;4.20;81.40;;;;;;5068673;28;20208;-70
2021/11/30 09:57:48;;;;;;;20.60;19.60;;;4.20;81.30;;;;;;5065776;28;20227;-71
2021/11/30 10:00:17;;;;;;;22.45;21.15;;;4.30;81.50;;;;;;5069476;28;20284;-70
2021/11/30 10:02:44;;;;;;;21.33;20.05;;;4.30;81.30;;;;;;5067785;28;20307;-71
2021/11/30 10:05:12;;;;;;;18.92;18.02;;;4.30;81.20;;;;;;5062079;28;20291;-70
2021/11/30 10:07:40;;;;;;;20.27;19.38;;;4.30;81.70;;;;;;5062575;28;20323;-70
2021/11/30 10:10:18;;;;;;;21.02;19.95;;;4.40;81.50;;;;;;5083109;28;20203;-70
2021/11/30 10:12:54;;;;;;;21.13;19.95;;;4.40;81.80;;;;;;5060766;28;20306;-70
2021/11/30 10:15:23;;;;;;;20.83;19.83;;;4.30;81.30;;;;;;5063070;28;20314;-70
2021/11/30 10:17:53;;;;;;;19.45;18.45;;;4.30;81.40;;;;;;5063956;28;20338;-72
2021/11/30 10:20:20;;;;;;;21.00;19.88;;;4.40;81.50;;;;;;5065310;28;20200;-70
2021/11/30 10:22:51;;;;;;;20.70;19.70;;;4.30;81.60;;;;;;5070389;28;20689;-70
2021/11/30 10:25:21;;;;;;;20.98;19.88;;;4.40;81.90;;;;;;5065104;28;20235;-70
2021/11/30 10:27:50;;;;;;;19.98;18.90;;;4.50;81.70;;;;;;5063600;28;20689;-69
2021/11/30 10:30:21;;;;;;;20.15;19.15;;;4.40;81.20;;;;;;5068779;28;20192;-69
2021/11/30 10:32:51;;;;;;;20.10;19.10;;;4.40;81.40;;;;;;5066771;28;20247;-69
2021/11/30 10:35:22;;;;;;;21.90;21.00;;;4.40;81.40;;;;;;5066662;28;20231;-71
2021/11/30 10:37:53;;;;;;;20.88;19.83;;;4.30;82.30;;;;;;5066648;28;20189;-70
2021/11/30 10:40:23;;;;;;;18.67;17.77;;;4.40;81.90;;;;;;5064825;28;20283;-69
2021/11/30 10:42:53;;;;;;;19.85;18.80;;;4.30;82.50;;;;;;5067172;28;20216;-69
2021/11/30 10:45:31;;;;;;;18.35;17.45;;;4.20;82.90;;;;;;5064588;28;20219;-70
2021/11/30 10:48:05;;;;;;;19.98;18.88;;;4.20;83.50;;;;;;5066274;28;20277;-70
2021/11/30 10:50:36;;;;;;;19.75;18.85;;;4.20;84.50;;;;;;5066571;28;20912;-72
2021/11/30 10:53:13;;;;;;;19.63;18.73;;;4.20;84.10;;;;;;5061818;28;20220;-70
2021/11/30 10:55:45;;;;;;;20.00;19.00;;;4.20;84.30;;;;;;5058926;28;20199;-72
2021/11/30 10:58:12;;;;;;;19.05;18.15;;;4.20;84.70;;;;;;5060650;28;20287;-69
2021/11/30 11:00:39;;;;;;;19.85;18.85;;;4.20;84.90;;;;;;5065376;28;20279;-70
2021/11/30 11:03:10;;;;;;;19.40;18.40;;;4.20;85.80;;;;;;5060546;28;20755;-72
2021/11/30 11:05:38;;;;;;;20.77;19.77;;;4.20;85.40;;;;;;5066505;28;20199;-73
2021/11/30 11:08:09;;;;;;;20.27;19.27;;;4.20;85.40;;;;;;5068735;28;20216;-72
2021/11/30 11:10:38;;;;;;;19.90;18.90;;;4.10;85.50;;;;;;5067468;28;20283;-74
2021/11/30 11:13:23;;;;;;;19.50;18.60;;;4.20;85.10;;;;;;5060317;28;20251;-74
2021/11/30 11:15:52;;;;;;;18.52;17.73;;;4.20;84.60;;;;;;5067032;28;20196;-74
2021/11/30 11:18:26;;;;;;;19.58;18.67;;;4.20;85.20;;;;;;5068810;28;20683;-75
2021/11/30 11:21:18;;;;;;;19.50;18.58;;;4.20;84.30;;;;;;5065227;28;20228;-74
2021/11/30 11:23:47;;;;;;;19.15;18.25;;;4.20;84.50;;;;;;5064938;28;20261;-74
2021/11/30 11:26:27;;;;;;;19.45;18.55;;;4.40;83.60;;;;;;5064033;28;20204;-74
2021/11/30 11:28:56;;;;;;;17.52;16.63;;;4.50;83.20;;;;;;5067448;28;20293;-74
2021/11/30 11:31:24;;;;;;;19.65;18.75;;;4.40;83.70;;;;;;5066783;28;20241;-75
2021/11/30 11:33:54;;;;;;;18.88;17.98;;;4.40;83.40;;;;;;5066555;28;20247;-74
2021/11/30 11:36:21;;;;;;;19.35;18.45;;;4.40;84.00;;;;;;5066384;28;20207;-76
2021/11/30 11:38:49;;;;;;;18.70;17.70;;;4.40;84.20;;;;;;5066686;28;20223;-75
2021/11/30 11:41:16;;;;;;;20.23;19.23;;;4.50;83.90;;;;;;5066302;28;20200;-75
2021/11/30 11:43:43;;;;;;;19.80;18.77;;;4.60;84.10;;;;;;5065388;28;20281;-75
2021/11/30 11:46:12;;;;;;;18.90;18.00;;;4.70;83.60;;;;;;5067542;28;20199;-72
2021/11/30 11:48:40;;;;;;;19.30;18.30;;;4.80;83.20;;;;;;5068011;28;20976;-72
2021/11/30 11:51:11;;;;;;;20.38;19.45;;;4.80;82.60;;;;;;5066037;28;20204;-71
2021/11/30 11:53:50;;;;;;;18.05;17.25;;;4.80;83.10;;;;;;5066934;28;20279;-72
2021/11/30 11:56:19;;;;;;;20.67;19.67;;;4.80;83.30;;;;;;5063465;28;20617;-72
2021/11/30 11:58:48;;;;;;;19.02;18.02;;;4.80;83.40;;;;;;5065471;28;20202;-72
2021/11/30 12:01:21;;;;;;;19.02;18.02;;;4.70;83.40;;;;;;5065177;28;20215;-71
2021/11/30 12:04:03;;;;;;;19.30;18.30;;;4.70;83.30;;;;;;5067011;28;20715;-72
2021/11/30 12:06:34;;;;;;;18.85;17.85;;;4.70;83.80;;;;;;5061822;28;20194;-72
2021/11/30 12:09:26;;;;;;;18.15;17.25;;;4.70;84.10;;;;;;5064366;28;20294;-71
2021/11/30 12:11:56;;;;;;;17.80;17.00;;;4.70;84.40;;;;;;5061063;28;20225;-72
2021/11/30 12:14:32;;;;;;;18.90;18.00;;;4.70;84.50;;;;;;5063413;28;20216;-72
2021/11/30 12:17:10;;;;;;;18.55;17.65;;;4.80;84.50;;;;;;5062227;28;20228;-72
2021/11/30 12:19:43;;;;;;;19.35;18.35;;;4.80;84.70;;;;;;5067898;28;20230;-73
2021/11/30 12:22:13;;;;;;;19.02;18.00;;;4.80;84.70;;;;;;5059580;28;20238;-72
2021/11/30 12:24:42;;;;;;;18.13;17.33;;;4.70;84.70;;;;;;5060158;28;20293;-72
2021/11/30 12:27:41;;;;;;;18.60;17.60;;;4.70;85.10;;;;;;5066363;28;20632;-72
2021/11/30 12:30:29;;;;;;;18.15;17.25;;;4.80;84.70;;;;;;5061850;28;20197;-72
2021/11/30 12:32:56;;;;;;;18.77;17.77;;;4.70;85.30;;;;;;5068055;28;20550;-72
2021/11/30 12:35:41;;;;;;;16.33;15.55;;;4.70;85.80;;;;;;5064578;28;20273;-73
2021/11/30 12:38:21;;;;;;;17.02;16.23;;;4.80;85.90;;;;;;5064442;28;20223;-73
2021/11/30 12:40:49;;;;;;;19.35;18.27;;;4.80;85.80;;;;;;5063894;28;20228;-72
2021/11/30 12:43:22;;;;;;;17.73;16.83;;;4.70;86.10;;;;;;5068454;28;20212;-72
2021/11/30 12:45:52;;;;;;;18.05;17.15;;;4.70;86.20;;;;;;5064648;28;20644;-71
2021/11/30 12:48:23;;;;;;;16.90;16.10;;;4.70;85.90;;;;;;5067306;28;20255;-71
2021/11/30 12:50:57;;;;;;;18.30;17.30;;;4.70;86.50;;;;;;5061868;28;20633;-72
2021/11/30 12:56:47;;;;;;;16.13;15.43;;;4.70;86.90;;;;;;5062898;27;20555;-71